• Join FlightAware (Why Join?)
  • Login
  • US Flag 
01:56AM EDT


 

Airport Tracker/Info


-or-


 

Live Flight TrackerFlight Track Log ✈ TAM8005 ✈ 10-Dec-2013 ✈ SABE / AEP - SBGR / GRU

Flight Track Log - Related Links

Times and Time Zones

All times are in EST time to prevent confusion due to time zone crossing. See the TAM8005 flight status page for this flight to view local times or setup timezone preferences in your user account.

Time Position Orientation Groundspeed Altitude Reporting Facility
EST Latitude Longitude Course Direction KTS MPH feet Rate Location/Type
01:41PM -32.9989 -56.4902 46° Northeast  Level Estimated
01:42PM -32.9273 -56.4044 45° Northeast  Level Estimated
01:43PM -32.8556 -56.3186 45° Northeast  Level Estimated
01:44PM -32.7839 -56.2331 45° Northeast  Level Estimated
01:45PM -32.7121 -56.1476 45° Northeast  Level Estimated
01:46PM -32.6402 -56.0623 45° Northeast  Level Estimated
01:47PM -32.5683 -55.9771 45° Northeast  Level Estimated
01:48PM -32.4963 -55.8921 45° Northeast  Level Estimated
01:49PM -32.4243 -55.8071 45° Northeast  Level Estimated
01:50PM -32.3522 -55.7224 45° Northeast  Level Estimated
01:51PM -32.2801 -55.6377 45° Northeast  Level Estimated
01:52PM -32.2079 -55.5532 45° Northeast  Level Estimated
01:53PM -32.1357 -55.4689 45° Northeast  Level Estimated
01:54PM -32.0634 -55.3846 45° Northeast  Level Estimated
01:55PM -31.9910 -55.3005 45° Northeast  Level Estimated
01:56PM -31.9186 -55.2165 45° Northeast  Level Estimated
01:57PM -31.8461 -55.1327 45° Northeast  Level Estimated
01:58PM -31.7736 -55.0490 44° Northeast  Level Estimated
01:59PM -31.7010 -54.9654 44° Northeast  Level Estimated
02:00PM -31.6283 -54.8820 44° Northeast  Level Estimated
02:01PM -31.5557 -54.7986 44° Northeast  Level Estimated
02:02PM -31.4829 -54.7155 44° Northeast  Level Estimated
02:03PM -31.4101 -54.6324 44° Northeast  Level Estimated
02:04PM -31.3373 -54.5495 44° Northeast  Level Estimated
02:05PM -31.2644 -54.4667 44° Northeast  Level Estimated
02:06PM -31.1914 -54.3840 44° Northeast  Level Estimated
02:07PM -31.1184 -54.3015 44° Northeast  Level Estimated
02:08PM -31.0453 -54.2190 44° Northeast  Level Estimated
02:09PM -30.9722 -54.1367 44° Northeast  Level Estimated
02:10PM -30.8990 -54.0546 44° Northeast  Level Estimated
02:11PM -30.8258 -53.9725 44° Northeast  Level Estimated
02:12PM -30.7526 -53.8906 44° Northeast  Level Estimated
02:13PM -30.6792 -53.8088 44° Northeast  Level Estimated
02:14PM -30.6059 -53.7272 44° Northeast  Level Estimated
02:15PM -30.5324 -53.6456 44° Northeast  Level Estimated
02:16PM -30.4590 -53.5642 44° Northeast  Level Estimated
02:17PM -30.3854 -53.4829 44° Northeast  Level Estimated
02:18PM -30.3118 -53.4018 44° Northeast  Level Estimated
02:19PM -30.2382 -53.3207 44° Northeast  Level Estimated
02:20PM -30.1645 -53.2398 44° Northeast  Level Estimated
02:21PM -30.0908 -53.1590 43° Northeast  Level Estimated
02:22PM -30.0170 -53.0783 43° Northeast  Level Estimated
02:23PM -29.9432 -52.9977 43° Northeast  Level Estimated
02:24PM -29.8694 -52.9173 43° Northeast  Level Estimated
02:25PM -29.7954 -52.8369 43° Northeast  Level Estimated
02:26PM -29.7215 -52.7567 43° Northeast  Level Estimated
02:27PM -29.6474 -52.6766 43° Northeast  Level Estimated
02:28PM -29.5734 -52.5967 43° Northeast  Level Estimated
02:29PM -29.4993 -52.5168 43° Northeast  Level Estimated
02:30PM -29.4251 -52.4371 43° Northeast  Level Estimated
02:31PM -29.3509 -52.3574 43° Northeast  Level Estimated
02:32PM -29.2766 -52.2779 43° Northeast  Level Estimated
02:33PM -29.2023 -52.1985 43° Northeast  Level Estimated
02:34PM -29.1280 -52.1193 43° Northeast  Level Estimated
02:35PM -29.0536 -52.0401 43° Northeast  Level Estimated
02:36PM -28.9791 -51.9610 43° Northeast  Level Estimated
02:37PM -28.9046 -51.8821 43° Northeast  Level Estimated
02:38PM -28.8301 -51.8033 43° Northeast  Level Estimated
02:39PM -28.7555 -51.7246 43° Northeast  Level Estimated
02:40PM -28.6809 -51.6460 43° Northeast  Level Estimated
02:41PM -28.6062 -51.5675 43° Northeast  Level Estimated
02:42PM -28.5315 -51.4891 43° Northeast  Level Estimated
02:43PM -28.4568 -51.4109 43° Northeast  Level Estimated
02:44PM -28.3819 -51.3327 43° Northeast  Level Estimated
02:45PM -28.3071 -51.2547 43° Northeast  Level Estimated
02:46PM -28.2322 -51.1767 43° Northeast  Level Estimated
02:47PM -28.1572 -51.0989 42° Northeast  Level Estimated
02:48PM -28.0823 -51.0212 42° Northeast  Level Estimated
02:49PM -28.0072 -50.9436 42° Northeast  Level Estimated
02:50PM -27.9322 -50.8661 42° Northeast  Level Estimated
02:51PM -27.8571 -50.7887 42° Northeast  Level Estimated
02:52PM -27.7819 -50.7114 42° Northeast  Level Estimated
02:53PM -27.7067 -50.6343 42° Northeast  Level Estimated
02:54PM -27.6315 -50.5572 42° Northeast  Level Estimated
02:55PM -27.5562 -50.4802 42° Northeast  Level Estimated
02:56PM -27.4808 -50.4034 42° Northeast  Level Estimated
02:57PM -27.4055 -50.3266 42° Northeast  Level Estimated
02:58PM -27.3301 -50.2500 42° Northeast  Level Estimated
02:59PM -27.2546 -50.1734 42° Northeast  Level Estimated
03:00PM -27.1791 -50.0970 42° Northeast  Level Estimated
03:01PM -27.1036 -50.0206 42° Northeast  Level Estimated
03:02PM -27.0280 -49.9444 42° Northeast  Level Estimated
03:03PM -26.9524 -49.8683 42° Northeast  Level Estimated
03:04PM -26.8767 -49.7923 42° Northeast  Level Estimated
03:05PM -26.8010 -49.7163 42° Northeast  Level Estimated
03:06PM -26.7253 -49.6405 42° Northeast  Level Estimated
03:07PM -26.6495 -49.5648 42° Northeast  Level Estimated
03:08PM -26.5737 -49.4892 42° Northeast  Level Estimated
03:09PM -26.4978 -49.4136 42° Northeast  Level Estimated
03:10PM -26.4219 -49.3382 42° Northeast  Level Estimated
03:11PM -26.3460 -49.2629 42° Northeast  Level Estimated
03:12PM -26.2700 -49.1876 42° Northeast  Level Estimated
03:13PM -26.1940 -49.1125 42° Northeast  Level Estimated
03:14PM -26.1179 -49.0375 42° Northeast  Level Estimated
03:15PM -26.0418 -48.9626 42° Northeast  Level Estimated
03:16PM -25.9657 -48.8877 41° Northeast  Level Estimated
03:17PM -25.8895 -48.8130 41° Northeast  Level Estimated
03:18PM -25.8133 -48.7383 41° Northeast  Level Estimated
03:19PM -25.7370 -48.6638 41° Northeast  Level Estimated
03:20PM -25.6608 -48.5893 41° Northeast  Level Estimated
03:21PM -25.5844 -48.5150 41° Northeast  Level Estimated
03:22PM -25.5081 -48.4407 41° Northeast  Level Estimated
03:23PM -25.4317 -48.3666 41° Northeast  Level Estimated
03:24PM -25.3552 -48.2925 41° Northeast  Level Estimated
03:25PM -25.2788 -48.2185 41° Northeast  Level Estimated
03:26PM -25.2022 -48.1446 41° Northeast  Level Estimated
03:27PM -25.1257 -48.0708 41° Northeast  Level Estimated
03:28PM -25.0491 -47.9971 41° Northeast  Level Estimated
03:29PM -24.9725 -47.9235 41° Northeast  Level Estimated
03:30PM -24.8958 -47.8500 41° Northeast  Level Estimated
03:31PM -24.8192 -47.7766 41° Northeast  Level Estimated
03:32PM -24.7424 -47.7033 41° Northeast  Level Estimated
03:33PM -24.6657 -47.6300 41° Northeast  Level Estimated
03:34PM -24.5889 -47.5569 41° Northeast  Level Estimated
03:35PM -24.5120 -47.4838 41° Northeast  Level Estimated
03:36PM -24.4352 -47.4108 41° Northeast  Level Estimated
03:37PM -24.3582 -47.3379 41° Northeast  Level Estimated
03:38PM -24.2813 -47.2651 41° Northeast  Level Estimated
03:39PM -24.2043 -47.1924 41° Northeast  Level Estimated
03:40PM -24.1273 -47.1198 41° Northeast  Level Estimated
03:41PM -24.0503 -47.0473 41° Northeast  Level Estimated
03:42PM -23.9732 -46.9748 41° Northeast  Level Estimated
03:43PM -23.8961 -46.9025 41° Northeast  Level Estimated
03:44PM -23.8190 -46.8302 41° Northeast  Level Estimated
03:45PM -23.7418 -46.7580 41° Northeast  Level Estimated
03:46PM -23.6646 -46.6859 41° Northeast  Level Estimated
03:47PM -23.5873 -46.6139 41° Northeast  Level Estimated
03:48PM -23.5100 -46.5420 40° Northeast  Level Estimated
03:49PM -23.4327 -46.4701 40° Northeast  Level Estimated
03:50PM -23.4321 -46.4695 40° Northeast  Level Estimated
03:51PM -23.4321 -46.4695 350° North  Level Estimated
03:52PM -23.4321 -46.4695 350° North  Level Estimated
03:53PM -23.4321 -46.4695 350° North  Level Estimated
03:54PM -23.4321 -46.4695 350° North  Level Estimated
03:55PM -23.4321 -46.4695 350° North  Level Estimated
03:56PM -23.4321 -46.4695 350° North  Level Estimated
03:57PM -23.4321 -46.4695 350° North  Level Estimated
03:58PM -23.4321 -46.4695 350° North  Level Estimated
03:59PM -23.4321 -46.4695 350° North  Level Estimated
04:00PM -23.4321 -46.4695 350° North  Level Estimated
04:01PM -23.4321 -46.4695 350° North  Level Estimated
04:02PM -23.4321 -46.4695 350° North  Level Estimated
04:03PM -23.4321 -46.4695 350° North  Level Estimated
04:04PM -23.4321 -46.4695 350° North  Level Estimated
04:05PM -23.4321 -46.4695 350° North  Level Estimated